Time;durP1;ratioP1;P1;durP2;ratioP2;P2;SDS_P1;SDS_P2;PMS_P1;PMS_P2;Temp;Humidity;BMP_temperature;BMP_pressure;BME280_temperature;BME280_humidity;BME280_pressure;Samples;Min_cycle;Max_cycle;Signal;HPM_P1;HPM_P2
2022/08/09 00:00:07;;;;;;;;;;;;;;;27.21;43.66;99603.47;4504673;31;34547;-87
2022/08/09 00:02:39;;;;;;;;;;;;;;;27.17;43.50;99601.88;4505219;31;33950;-91
2022/08/09 00:05:15;;;;;;;;;;;;;;;26.73;44.52;99607.47;4508260;31;34441;-92
2022/08/09 00:08:03;;;;;;;;;;;;;;;26.81;44.22;99612.44;4509534;31;32668;-92
2022/08/09 00:10:37;;;;;;;;;;;;;;;26.55;44.57;99610.97;4507843;31;34234;-93
2022/08/09 00:13:05;;;;;;;;;;;;;;;26.66;44.30;99603.38;4506805;31;35073;-90
2022/08/09 00:15:44;;;;;;;;;;;;;;;26.77;44.00;99610.84;4503992;31;33519;-88
2022/08/09 00:18:32;;;;;;;;;;;;;;;26.93;43.78;99609.19;4509743;31;34353;-93
2022/08/09 00:21:05;;;;;;;;;;;;;;;26.95;43.70;99610.00;4508983;31;33897;-87
2022/08/09 00:23:35;;;;;;;;;;;;;;;26.69;44.43;99601.44;4509948;31;34106;-86
2022/08/09 00:26:25;;;;;;;;;;;;;;;27.00;44.05;99601.78;4502436;31;33375;-86
2022/08/09 00:29:00;;;;;;;;;;;;;;;27.04;43.62;99601.56;4503248;31;34773;-90
2022/08/09 00:31:28;;;;;;;;;;;;;;;26.92;43.67;99603.00;4505305;31;33949;-89
2022/08/09 00:34:18;;;;;;;;;;;;;;;27.40;42.64;99608.75;4504876;31;34274;-94
2022/08/09 00:36:46;;;;;;;;;;;;;;;27.02;43.53;99603.44;4507429;31;33355;-91
2022/08/09 00:39:15;;;;;;;;;;;;;;;26.68;44.04;99598.84;4504668;31;35071;-92
2022/08/09 00:42:03;;;;;;;;;;;;;;;26.91;43.63;99605.75;4505877;31;35193;-92
2022/08/09 00:44:50;;;;;;;;;;;;;;;27.41;42.54;99608.66;4507492;31;34618;-86
2022/08/09 00:47:21;;;;;;;;;;;;;;;27.13;42.96;99601.16;4503283;31;33625;-85
2022/08/09 00:49:54;;;;;;;;;;;;;;;27.01;43.33;99595.53;4500780;31;35016;-87
2022/08/09 00:52:24;;;;;;;;;;;;;;;27.30;42.83;99596.81;4480620;31;33930;-85
2022/08/09 00:55:00;;;;;;;;;;;;;;;27.45;42.43;99593.38;4482369;31;33923;-85
2022/08/09 00:57:29;;;;;;;;;;;;;;;27.47;42.17;99593.34;4497191;31;34192;-92
2022/08/09 01:00:03;;;;;;;;;;;;;;;27.58;41.77;99586.53;4497441;31;33730;-90
2022/08/09 01:02:53;;;;;;;;;;;;;;;27.49;41.89;99578.12;4483470;31;34155;-94
2022/08/09 01:05:23;;;;;;;;;;;;;;;27.01;43.03;99580.44;4482397;31;34064;-92
2022/08/09 01:08:13;;;;;;;;;;;;;;;26.79;43.39;99580.59;4485003;31;34205;-86
2022/08/09 01:10:57;;;;;;;;;;;;;;;26.92;43.22;99580.88;4496277;31;34920;-85
2022/08/09 01:13:47;;;;;;;;;;;;;;;26.58;44.38;99587.78;4493897;31;34487;-93
2022/08/09 01:16:29;;;;;;;;;;;;;;;26.69;44.39;99588.13;4485668;31;34958;-87
2022/08/09 01:18:58;;;;;;;;;;;;;;;26.25;44.76;99591.94;4496877;31;33003;-90
2022/08/09 01:21:28;;;;;;;;;;;;;;;25.74;45.89;99591.47;4484693;31;33832;-93
2022/08/09 01:24:23;;;;;;;;;;;;;;;26.30;44.58;99582.81;4483224;32;34537;-88
2022/08/09 01:26:56;;;;;;;;;;;;;;;25.64;45.79;99604.25;4468819;32;34186;-92
2022/08/09 01:29:27;;;;;;;;;;;;;;;25.93;45.16;99586.25;4489651;31;33767;-93
2022/08/09 01:32:08;;;;;;;;;;;;;;;25.86;46.02;99576.81;4486111;31;35156;-88
2022/08/09 01:34:55;;;;;;;;;;;;;;;26.26;45.00;99575.06;4486492;31;35155;-92
2022/08/09 01:37:23;;;;;;;;;;;;;;;25.73;45.66;99577.31;4492351;31;34956;-86
2022/08/09 01:40:11;;;;;;;;;;;;;;;26.35;44.73;99579.97;4474137;32;32121;-91
2022/08/09 01:42:49;;;;;;;;;;;;;;;26.14;45.05;99572.03;4482826;32;34291;-87
2022/08/09 01:45:17;;;;;;;;;;;;;;;26.02;45.53;99577.88;4482891;32;34079;-93
2022/08/09 01:47:45;;;;;;;;;;;;;;;26.12;45.23;99571.22;4470629;32;34088;-91
2022/08/09 01:50:16;;;;;;;;;;;;;;;26.30;44.76;99571.34;4484643;31;33560;-95
2022/08/09 01:52:43;;;;;;;;;;;;;;;25.61;45.78;99583.16;4512975;31;34904;-94
2022/08/09 01:55:11;;;;;;;;;;;;;;;25.47;46.56;99580.22;4513985;31;34458;-95
2022/08/09 01:57:40;;;;;;;;;;;;;;;25.70;46.33;99581.91;4504338;31;34501;-94
2022/08/09 02:00:12;;;;;;;;;;;;;;;26.02;45.06;99569.88;4505213;31;33575;-95
2022/08/09 02:02:59;;;;;;;;;;;;;;;25.85;45.75;99564.47;4502045;31;34338;-94
2022/08/09 02:05:27;;;;;;;;;;;;;;;24.94;47.22;99575.25;4499626;31;34440;-95
2022/08/09 02:08:15;;;;;;;;;;;;;;;24.82;47.84;99570.44;4513331;31;34208;-92
2022/08/09 02:11:02;;;;;;;;;;;;;;;25.65;46.23;99573.28;4488937;31;33415;-88
2022/08/09 02:13:43;;;;;;;;;;;;;;;26.25;44.83;99562.69;4501068;31;34185;-94
2022/08/09 02:16:32;;;;;;;;;;;;;;;26.58;44.39;99552.34;4516464;31;35216;-94
2022/08/09 02:19:20;;;;;;;;;;;;;;;26.73;44.13;99548.97;4514816;31;34348;-92
2022/08/09 02:21:48;;;;;;;;;;;;;;;26.55;44.41;99544.50;4501567;31;34582;-93
2022/08/09 02:24:23;;;;;;;;;;;;;;;26.87;43.96;99543.00;4515091;31;34100;-94
2022/08/09 02:26:53;;;;;;;;;;;;;;;26.90;43.58;99540.19;4514214;31;34252;-94
2022/08/09 02:29:21;;;;;;;;;;;;;;;26.89;43.54;99536.63;4516171;31;34881;-93
2022/08/09 02:31:48;;;;;;;;;;;;;;;26.77;43.65;99542.56;4514479;31;33780;-91
2022/08/09 02:34:23;;;;;;;;;;;;;;;26.59;43.98;99541.63;4511887;31;34276;-93
2022/08/09 02:37:08;;;;;;;;;;;;;;;26.78;43.33;99538.09;4511307;31;35127;-94
2022/08/09 02:39:39;;;;;;;;;;;;;;;26.77;43.36;99541.69;4516157;31;34342;-94
2022/08/09 02:42:15;;;;;;;;;;;;;;;26.95;42.86;99538.16;4515539;31;33710;-94
2022/08/09 02:44:45;;;;;;;;;;;;;;;25.67;45.54;99542.19;4516531;31;34346;-93
2022/08/09 02:47:14;;;;;;;;;;;;;;;25.16;46.45;99556.72;4511238;31;34445;-93
2022/08/09 02:49:46;;;;;;;;;;;;;;;24.93;47.40;99547.88;4504596;31;34308;-93
2022/08/09 02:52:48;;;;;;;;;;;;;;;24.56;47.94;99548.44;4514582;31;34286;-91
2022/08/09 02:55:22;;;;;;;;;;;;;;;23.92;49.33;99545.50;4507710;31;35046;-94
2022/08/09 02:58:09;;;;;;;;;;;;;;;23.92;49.49;99551.66;4514489;31;34320;-92
2022/08/09 03:00:57;;;;;;;;;;;;;;;24.18;48.72;99553.38;4515814;31;34801;-94
2022/08/09 03:03:30;;;;;;;;;;;;;;;25.04;46.66;99555.41;4514748;31;33346;-91
2022/08/09 03:06:17;;;;;;;;;;;;;;;25.57;45.71;99555.00;4506077;31;33233;-94
2022/08/09 03:08:47;;;;;;;;;;;;;;;25.73;45.32;99548.09;4509141;31;34532;-93
2022/08/09 03:11:15;;;;;;;;;;;;;;;25.34;46.21;99563.06;4499318;31;33866;-94
2022/08/09 03:14:03;;;;;;;;;;;;;;;24.85;47.00;99559.69;4499206;31;34685;-94
2022/08/09 03:16:30;;;;;;;;;;;;;;;24.22;48.41;99564.72;4499026;31;33788;-94
2022/08/09 03:18:58;;;;;;;;;;;;;;;23.78;49.84;99560.09;4499038;31;34109;-92
2022/08/09 03:21:28;;;;;;;;;;;;;;;23.72;49.98;99562.97;4498736;31;34523;-94
2022/08/09 03:24:05;;;;;;;;;;;;;;;23.95;49.30;99569.22;4498614;31;33841;-93
2022/08/09 03:26:36;;;;;;;;;;;;;;;23.77;49.92;99568.94;4498899;31;34250;-94
2022/08/09 03:29:11;;;;;;;;;;;;;;;24.42;48.33;99556.91;4498634;31;35287;-92
2022/08/09 03:31:50;;;;;;;;;;;;;;;24.73;47.73;99556.59;4498645;31;35335;-94
2022/08/09 03:34:26;;;;;;;;;;;;;;;25.34;46.19;99568.34;4498980;31;33700;-93
2022/08/09 03:36:54;;;;;;;;;;;;;;;25.08;46.55;99570.28;4499853;31;33750;-93
2022/08/09 03:39:28;;;;;;;;;;;;;;;25.09;46.79;99568.47;4509521;31;35376;-93
2022/08/09 03:42:04;;;;;;;;;;;;;;;24.79;47.12;99570.56;4504510;31;34180;-93
2022/08/09 03:44:33;;;;;;;;;;;;;;;25.27;46.25;99566.87;4500057;31;33596;-94
2022/08/09 03:47:00;;;;;;;;;;;;;;;25.74;45.43;99559.59;4499817;31;33974;-93
2022/08/09 03:49:27;;;;;;;;;;;;;;;26.01;44.90;99554.88;4513583;31;34516;-92
2022/08/09 03:52:02;;;;;;;;;;;;;;;26.10;44.69;99551.84;4515142;31;35125;-93
2022/08/09 03:54:34;;;;;;;;;;;;;;;25.80;45.24;99555.81;4515385;31;34015;-91
2022/08/09 03:57:06;;;;;;;;;;;;;;;26.06;44.76;99555.53;4514309;31;34162;-94
2022/08/09 03:59:47;;;;;;;;;;;;;;;26.48;43.72;99548.38;4513266;31;34459;-93
2022/08/09 04:02:22;;;;;;;;;;;;;;;26.05;44.72;99555.62;4515386;31;33993;-94
2022/08/09 04:04:58;;;;;;;;;;;;;;;26.36;43.91;99544.47;4515569;31;32951;-94
2022/08/09 04:07:28;;;;;;;;;;;;;;;26.71;43.17;99549.94;4513887;31;35032;-89
2022/08/09 04:10:15;;;;;;;;;;;;;;;26.59;43.75;99557.56;4499095;31;35276;-93
2022/08/09 04:12:50;;;;;;;;;;;;;;;26.58;43.42;99557.66;4499304;31;34445;-93
2022/08/09 04:15:19;;;;;;;;;;;;;;;26.78;42.87;99562.03;4498197;31;34269;-92
2022/08/09 04:18:06;;;;;;;;;;;;;;;26.89;42.47;99565.03;4501394;31;34163;-92
2022/08/09 04:20:34;;;;;;;;;;;;;;;26.73;43.13;99564.06;4515144;31;35438;-93
2022/08/09 04:23:02;;;;;;;;;;;;;;;26.91;42.65;99563.19;4515143;31;34199;-93
2022/08/09 04:25:36;;;;;;;;;;;;;;;26.93;42.65;99563.97;4515250;31;34017;-93
2022/08/09 04:28:03;;;;;;;;;;;;;;;27.13;42.15;99569.22;4514886;31;33932;-93
2022/08/09 04:30:31;;;;;;;;;;;;;;;27.11;42.26;99564.91;4514605;31;35055;-91
2022/08/09 04:32:59;;;;;;;;;;;;;;;27.26;42.20;99574.81;4514872;31;34128;-93
2022/08/09 04:35:27;;;;;;;;;;;;;;;27.46;42.12;99576.47;4515189;31;34259;-91
2022/08/09 04:38:18;;;;;;;;;;;;;;;27.75;42.38;99582.16;4502361;31;35789;-93
2022/08/09 04:40:48;;;;;;;;;;;;;;;28.19;41.51;99584.31;4515315;31;35293;-94
2022/08/09 04:43:23;;;;;;;;;;;;;;;28.73;40.09;99585.81;4515246;31;33760;-91
2022/08/09 04:45:51;;;;;;;;;;;;;;;28.99;39.73;99581.75;4515285;31;32953;-93
2022/08/09 04:48:20;;;;;;;;;;;;;;;28.97;39.70;99578.25;4514361;31;34636;-93
2022/08/09 04:50:50;;;;;;;;;;;;;;;29.11;40.05;99582.84;4513091;31;35409;-91
2022/08/09 04:53:17;;;;;;;;;;;;;;;29.47;39.32;99584.34;4514794;31;34179;-93
2022/08/09 04:55:44;;;;;;;;;;;;;;;29.46;39.03;99587.97;4514662;31;34229;-90
2022/08/09 04:58:26;;;;;;;;;;;;;;;28.73;39.41;99579.63;4514920;31;33938;-92
2022/08/09 05:00:54;;;;;;;;;;;;;;;29.14;38.53;99576.47;4511622;31;33780;-95
2022/08/09 05:03:21;;;;;;;;;;;;;;;27.48;41.08;99579.94;4501219;31;35054;-95
2022/08/09 05:06:09;;;;;;;;;;;;;;;28.41;39.83;99574.25;4514373;31;35366;-91
2022/08/09 05:08:37;;;;;;;;;;;;;;;28.41;40.20;99578.72;4511463;31;34270;-92
2022/08/09 05:11:05;;;;;;;;;;;;;;;28.98;40.15;99581.81;4514480;31;33985;-90
2022/08/09 05:13:34;;;;;;;;;;;;;;;29.41;38.82;99588.22;4513819;31;34357;-92
2022/08/09 05:16:06;;;;;;;;;;;;;;;28.90;39.28;99582.22;4514671;31;33962;-93
2022/08/09 05:18:34;;;;;;;;;;;;;;;28.75;39.20;99591.97;4513252;31;34258;-91
2022/08/09 05:21:21;;;;;;;;;;;;;;;28.24;39.77;99585.78;4514322;31;34074;-92
2022/08/09 05:23:51;;;;;;;;;;;;;;;28.96;38.79;99587.22;4513403;31;34849;-95
2022/08/09 05:26:28;;;;;;;;;;;;;;;28.69;39.51;99578.09;4501002;31;34111;-90
2022/08/09 05:29:20;;;;;;;;;;;;;;;28.88;39.34;99589.47;4507408;31;33225;-91
2022/08/09 05:31:51;;;;;;;;;;;;;;;29.25;39.62;99590.09;4503450;31;34360;-89
2022/08/09 05:34:32;;;;;;;;;;;;;;;28.67;40.23;99598.63;4511826;31;34959;-89
2022/08/09 05:37:00;;;;;;;;;;;;;;;28.40;41.37;99599.19;4514653;31;33563;-91
2022/08/09 05:39:31;;;;;;;;;;;;;;;28.73;40.20;99591.16;4513824;31;33810;-94
2022/08/09 05:42:05;;;;;;;;;;;;;;;29.41;38.51;99596.25;4512518;31;35135;-90
2022/08/09 05:44:32;;;;;;;;;;;;;;;28.13;41.30;99589.03;4512495;31;34348;-90
2022/08/09 05:47:01;;;;;;;;;;;;;;;28.74;39.77;99597.34;4512914;31;33197;-89
2022/08/09 05:49:32;;;;;;;;;;;;;;;28.36;40.67;99595.78;4515214;31;33783;-88
2022/08/09 05:52:20;;;;;;;;;;;;;;;28.38;41.32;99603.75;4515429;31;33948;-89
2022/08/09 05:54:50;;;;;;;;;;;;;;;28.33;41.66;99595.94;4508064;31;34206;-90
2022/08/09 05:57:18;;;;;;;;;;;;;;;27.40;42.95;99598.94;4513244;31;33299;-90
2022/08/09 05:59:51;;;;;;;;;;;;;;;27.51;43.50;99601.09;4501929;31;34066;-89
2022/08/09 06:02:19;;;;;;;;;;;;;;;27.61;43.55;99594.34;4504957;31;34479;-90
2022/08/09 06:04:48;;;;;;;;;;;;;;;27.92;42.20;99608.81;4514310;31;34997;-90
2022/08/09 06:07:15;;;;;;;;;;;;;;;26.80;44.22;99597.41;4516166;31;34184;-92
2022/08/09 06:09:48;;;;;;;;;;;;;;;26.98;44.58;99601.88;4505879;31;35094;-90
2022/08/09 06:12:29;;;;;;;;;;;;;;;26.17;45.95;99594.94;4515788;31;35361;-92
2022/08/09 06:14:56;;;;;;;;;;;;;;;27.12;43.53;99604.78;4513539;31;33672;-89
2022/08/09 06:17:28;;;;;;;;;;;;;;;26.71;44.08;99603.16;4515111;31;33300;-89
2022/08/09 06:20:06;;;;;;;;;;;;;;;26.57;44.55;99602.00;4515652;31;35061;-88
2022/08/09 06:22:34;;;;;;;;;;;;;;;26.22;45.86;99608.03;4511251;31;35353;-89
2022/08/09 06:25:02;;;;;;;;;;;;;;;26.85;44.76;99600.72;4504115;31;34213;-89
2022/08/09 06:27:30;;;;;;;;;;;;;;;26.93;44.97;99601.22;4514688;31;34208;-89
2022/08/09 06:30:10;;;;;;;;;;;;;;;27.44;44.01;99597.00;4515716;31;34697;-89
2022/08/09 06:32:42;;;;;;;;;;;;;;;27.34;43.10;99601.03;4515886;31;34067;-87
2022/08/09 06:35:30;;;;;;;;;;;;;;;27.11;43.78;99602.16;4514916;31;34973;-88
2022/08/09 06:38:17;;;;;;;;;;;;;;;28.14;41.77;99601.41;4511088;31;34148;-89
2022/08/09 06:40:45;;;;;;;;;;;;;;;28.81;40.70;99601.41;4515583;31;35162;-89
2022/08/09 06:43:12;;;;;;;;;;;;;;;28.98;40.64;99601.38;4515014;31;34272;-89
2022/08/09 06:45:40;;;;;;;;;;;;;;;29.07;40.28;99597.31;4506228;31;33831;-89
2022/08/09 06:48:28;;;;;;;;;;;;;;;29.26;39.65;99603.34;4514613;31;33031;-88
2022/08/09 06:50:58;;;;;;;;;;;;;;;30.04;37.70;99605.91;4515457;31;34069;-90
2022/08/09 06:53:25;;;;;;;;;;;;;;;30.68;36.72;99601.09;4515333;31;33970;-88
2022/08/09 06:56:01;;;;;;;;;;;;;;;29.61;38.80;99608.47;4515048;31;35003;-89
2022/08/09 06:58:29;;;;;;;;;;;;;;;29.14;39.45;99605.84;4515401;31;33210;-87
2022/08/09 07:01:16;;;;;;;;;;;;;;;29.61;37.77;99610.28;4515524;31;33869;-89
2022/08/09 07:03:47;;;;;;;;;;;;;;;29.24;38.51;99610.56;4515070;31;35224;-88
2022/08/09 07:06:20;;;;;;;;;;;;;;;29.76;36.86;99607.56;4514835;31;33950;-89
2022/08/09 07:08:51;;;;;;;;;;;;;;;30.54;36.99;99602.84;4515651;31;33272;-88
2022/08/09 07:11:18;;;;;;;;;;;;;;;30.78;35.48;99602.25;4514834;31;33879;-88
2022/08/09 07:13:51;;;;;;;;;;;;;;;30.75;37.36;99602.44;4515187;31;34382;-88
2022/08/09 07:16:32;;;;;;;;;;;;;;;31.21;35.21;99603.00;4515339;31;33991;-89
2022/08/09 07:19:10;;;;;;;;;;;;;;;31.40;34.93;99605.37;4514826;31;34204;-90
2022/08/09 07:21:44;;;;;;;;;;;;;;;30.94;35.32;99605.66;4507725;31;33982;-90
2022/08/09 07:24:29;;;;;;;;;;;;;;;30.06;36.47;99614.69;4502538;31;34078;-90
2022/08/09 07:27:17;;;;;;;;;;;;;;;30.29;36.31;99607.97;4478860;31;32401;-92
2022/08/09 07:30:00;;;;;;;;;;;;;;;30.35;35.90;99602.25;4513183;31;33082;-90
2022/08/09 07:32:28;;;;;;;;;;;;;;;30.56;34.60;99601.88;4515522;31;35096;-94
2022/08/09 07:35:01;;;;;;;;;;;;;;;29.92;36.07;99593.28;4500384;31;34489;-91
2022/08/09 07:37:38;;;;;;;;;;;;;;;30.59;35.64;99599.00;4505088;31;33605;-91
2022/08/09 07:40:11;;;;;;;;;;;;;;;30.30;36.09;99594.50;4509338;31;33486;-87
2022/08/09 07:42:52;;;;;;;;;;;;;;;30.85;35.78;99600.06;4512408;31;33576;-92
2022/08/09 07:45:29;;;;;;;;;;;;;;;31.39;35.39;99603.66;4514248;31;34103;-90
2022/08/09 07:48:07;;;;;;;;;;;;;;;29.40;37.93;99612.34;4515156;31;34902;-94
2022/08/09 07:50:55;;;;;;;;;;;;;;;29.55;37.73;99612.34;4515115;31;34324;-92
2022/08/09 07:53:42;;;;;;;;;;;;;;;29.40;38.50;99615.03;4515033;31;33554;-92
2022/08/09 07:56:30;;;;;;;;;;;;;;;30.00;37.19;99610.59;4515510;31;35343;-93
2022/08/09 07:58:57;;;;;;;;;;;;;;;29.96;36.74;99617.06;4514429;31;34633;-87
2022/08/09 08:01:25;;;;;;;;;;;;;;;29.46;38.54;99614.69;4502045;31;33425;-93
2022/08/09 08:04:01;;;;;;;;;;;;;;;30.87;36.89;99608.84;4514418;31;34586;-87
2022/08/09 08:06:28;;;;;;;;;;;;;;;30.46;34.70;99601.59;4515278;31;35220;-87
2022/08/09 08:08:58;;;;;;;;;;;;;;;29.35;37.40;99617.97;4513858;31;34140;-85
2022/08/09 08:11:33;;;;;;;;;;;;;;;30.96;34.70;99613.63;4513113;31;33859;-90
2022/08/09 08:14:21;;;;;;;;;;;;;;;31.17;33.85;99604.16;4514624;31;34200;-90
2022/08/09 08:16:52;;;;;;;;;;;;;;;30.23;35.19;99605.66;4514861;31;35147;-91
2022/08/09 08:19:34;;;;;;;;;;;;;;;31.00;34.40;99605.28;4514373;31;33680;-92
2022/08/09 08:22:01;;;;;;;;;;;;;;;30.30;34.15;99599.84;4495084;31;33285;-91
2022/08/09 08:24:30;;;;;;;;;;;;;;;30.46;34.25;99607.81;4501537;31;34295;-95
2022/08/09 08:27:06;;;;;;;;;;;;;;;30.69;34.92;99597.47;4501360;31;35248;-92
2022/08/09 08:29:43;;;;;;;;;;;;;;;29.99;35.10;99608.84;4514078;31;35135;-91
2022/08/09 08:32:17;;;;;;;;;;;;;;;30.18;34.93;99599.75;4514955;31;33426;-90
2022/08/09 08:34:58;;;;;;;;;;;;;;;30.21;34.58;99604.91;4514298;31;34083;-90
2022/08/09 08:37:26;;;;;;;;;;;;;;;30.47;35.02;99593.47;4514900;31;34362;-89
2022/08/09 08:40:13;;;;;;;;;;;;;;;31.41;33.15;99595.53;4514910;31;33938;-84
2022/08/09 08:42:42;;;;;;;;;;;;;;;29.71;35.70;99608.81;4513426;31;33024;-86
2022/08/09 08:45:13;;;;;;;;;;;;;;;31.09;32.94;99595.78;4514738;31;34001;-93
2022/08/09 08:47:41;;;;;;;;;;;;;;;31.43;33.04;99599.81;4510399;31;34085;-90
2022/08/09 08:50:14;;;;;;;;;;;;;;;30.77;33.84;99596.06;4504370;31;33897;-93
2022/08/09 08:52:44;;;;;;;;;;;;;;;30.39;33.89;99603.78;4506550;31;33313;-91
2022/08/09 08:55:26;;;;;;;;;;;;;;;29.99;35.18;99598.16;4508072;31;34190;-90
2022/08/09 08:57:54;;;;;;;;;;;;;;;31.43;33.23;99596.28;4499193;31;34108;-92
2022/08/09 09:00:24;;;;;;;;;;;;;;;30.18;34.37;99599.75;4499071;31;33650;-90
2022/08/09 09:02:57;;;;;;;;;;;;;;;29.13;36.26;99602.28;4509624;31;33368;-91
2022/08/09 09:05:34;;;;;;;;;;;;;;;29.34;35.68;99602.88;4513688;31;33875;-91
2022/08/09 09:08:21;;;;;;;;;;;;;;;30.77;34.78;99601.41;4514832;31;34489;-90
2022/08/09 09:13:48;;;;;;;;;;;;;;;30.46;34.33;99599.78;4510548;31;33580;-92
2022/08/09 09:16:28;;;;;;;;;;;;;;;30.06;35.29;99599.50;4501301;31;34611;-85
2022/08/09 09:18:58;;;;;;;;;;;;;;;29.48;35.95;99604.78;4507119;31;34680;-92
2022/08/09 09:21:58;;;;;;;;;;;;;;;30.99;33.32;99603.56;4506324;31;35280;-92
2022/08/09 09:24:29;;;;;;;;;;;;;;;31.74;32.79;99589.69;4512939;31;33968;-84
2022/08/09 09:26:58;;;;;;;;;;;;;;;31.64;32.44;99594.00;4513531;31;33689;-94
2022/08/09 09:29:26;;;;;;;;;;;;;;;30.55;34.08;99598.34;4512470;31;35023;-92
2022/08/09 09:32:17;;;;;;;;;;;;;;;29.84;35.68;99609.78;4513373;31;33812;-91
2022/08/09 09:35:03;;;;;;;;;;;;;;;30.62;32.99;99601.50;4514377;31;33434;-93
2022/08/09 09:37:38;;;;;;;;;;;;;;;32.07;31.83;99591.06;4506102;31;33634;-91
2022/08/09 09:40:07;;;;;;;;;;;;;;;31.58;31.81;99589.03;4513644;31;34468;-91
2022/08/09 09:42:35;;;;;;;;;;;;;;;32.11;31.53;99597.94;4513743;31;33907;-90
2022/08/09 09:45:05;;;;;;;;;;;;;;;30.95;32.95;99598.50;4513831;31;34195;-92
2022/08/09 09:47:34;;;;;;;;;;;;;;;32.01;30.73;99599.53;4513842;31;34912;-86
2022/08/09 09:50:20;;;;;;;;;;;;;;;32.43;30.19;99596.59;4501701;31;34400;-91
2022/08/09 09:52:52;;;;;;;;;;;;;;;32.37;31.17;99601.47;4513849;31;33913;-93
2022/08/09 09:55:23;;;;;;;;;;;;;;;32.49;31.00;99600.62;4513825;31;33546;-91
2022/08/09 09:58:06;;;;;;;;;;;;;;;32.23;30.91;99595.25;4513354;31;33862;-91
2022/08/09 10:00:46;;;;;;;;;;;;;;;32.48;31.04;99598.06;4512427;31;34415;-90
2022/08/09 10:03:40;;;;;;;;;;;;;;;32.59;30.47;99587.44;4512968;31;34375;-88
2022/08/09 10:06:09;;;;;;;;;;;;;;;32.53;31.08;99595.91;4513512;31;33709;-95
2022/08/09 10:08:40;;;;;;;;;;;;;;;32.20;32.16;99591.91;4513379;31;34286;-91
2022/08/09 10:11:28;;;;;;;;;;;;;;;32.57;29.59;99597.41;4513327;31;34360;-94
2022/08/09 10:14:20;;;;;;;;;;;;;;;32.36;31.18;99587.22;4515948;31;34565;-93
2022/08/09 10:16:58;;;;;;;;;;;;;;;31.58;32.41;99589.03;4515017;31;33495;-91
2022/08/09 10:19:46;;;;;;;;;;;;;;;32.39;30.99;99580.75;4509408;31;34346;-92
2022/08/09 10:22:32;;;;;;;;;;;;;;;32.64;29.86;99572.69;4513985;31;35296;-90
2022/08/09 10:25:02;;;;;;;;;;;;;;;32.82;30.49;99578.56;4513256;31;34436;-91
2022/08/09 10:27:38;;;;;;;;;;;;;;;32.41;30.50;99577.03;4513258;31;32813;-92
2022/08/09 10:30:25;;;;;;;;;;;;;;;32.82;29.28;99572.34;4513214;31;35241;-92
2022/08/09 10:33:12;;;;;;;;;;;;;;;31.88;30.74;99568.22;4500487;31;34450;-93
2022/08/09 10:36:00;;;;;;;;;;;;;;;31.61;31.37;99572.75;4514881;31;34012;-91
2022/08/09 10:38:28;;;;;;;;;;;;;;;30.52;33.29;99574.44;4515363;31;33447;-93
2022/08/09 10:41:19;;;;;;;;;;;;;;;32.27;30.84;99570.88;4515492;31;35087;-90
2022/08/09 10:43:47;;;;;;;;;;;;;;;32.46;30.41;99576.69;4501812;31;32824;-93
2022/08/09 10:46:36;;;;;;;;;;;;;;;33.25;30.10;99567.34;4502751;31;34253;-94
2022/08/09 10:49:23;;;;;;;;;;;;;;;33.15;29.03;99571.72;4509134;31;33981;-91
2022/08/09 10:52:20;;;;;;;;;;;;;;;32.71;29.02;99562.38;4503218;31;34283;-93
2022/08/09 10:54:52;;;;;;;;;;;;;;;32.89;30.31;99561.03;4516027;31;34038;-93
2022/08/09 10:57:22;;;;;;;;;;;;;;;32.70;29.88;99563.34;4515270;31;34810;-87
2022/08/09 10:59:49;;;;;;;;;;;;;;;33.69;28.18;99563.19;4514550;31;33272;-90
2022/08/09 11:02:34;;;;;;;;;;;;;;;33.34;29.25;99561.31;4514493;31;34126;-90
2022/08/09 11:05:22;;;;;;;;;;;;;;;32.16;30.60;99556.44;4515840;31;34478;-92
2022/08/09 11:08:04;;;;;;;;;;;;;;;32.75;31.53;99553.13;4514760;31;34088;-89
2022/08/09 11:10:42;;;;;;;;;;;;;;;33.03;29.46;99560.03;4506980;31;33359;-89
2022/08/09 11:13:22;;;;;;;;;;;;;;;33.60;29.00;99556.69;4514800;31;35103;-90
2022/08/09 11:16:50;;;;;;;;;;;;;;;33.04;30.18;99558.25;4515075;31;34041;-90
2022/08/09 11:19:20;;;;;;;;;;;;;;;33.01;30.44;99558.47;4464086;32;34338;-91
2022/08/09 11:22:07;;;;;;;;;;;;;;;32.65;31.22;99558.28;4444187;32;34160;-91
2022/08/09 11:24:57;;;;;;;;;;;;;;;33.55;29.39;99558.00;4500437;31;32761;-87
2022/08/09 11:27:31;;;;;;;;;;;;;;;33.84;28.44;99547.69;4514897;31;34918;-90
2022/08/09 11:30:21;;;;;;;;;;;;;;;32.71;30.86;99551.63;4513486;31;34248;-90
2022/08/09 11:33:13;;;;;;;;;;;;;;;33.61;29.74;99552.16;4515414;31;33488;-91
2022/08/09 11:35:55;;;;;;;;;;;;;;;33.92;29.60;99539.88;4514964;31;34455;-90
2022/08/09 11:38:24;;;;;;;;;;;;;;;33.94;29.34;99537.91;4514181;31;34808;-91
2022/08/09 11:41:04;;;;;;;;;;;;;;;33.71;28.06;99537.00;4515233;31;34239;-89
2022/08/09 11:43:31;;;;;;;;;;;;;;;34.23;27.43;99541.03;4515497;31;33406;-90
2022/08/09 11:45:59;;;;;;;;;;;;;;;33.98;28.80;99539.44;4514772;31;34218;-89
2022/08/09 11:48:29;;;;;;;;;;;;;;;34.21;29.10;99534.94;4506280;31;34326;-86
2022/08/09 11:51:00;;;;;;;;;;;;;;;33.63;28.79;99536.75;4500725;31;33310;-95
2022/08/09 11:53:48;;;;;;;;;;;;;;;33.53;28.26;99544.69;4514970;31;33293;-93
2022/08/09 11:56:30;;;;;;;;;;;;;;;32.61;30.06;99542.53;4508413;31;34542;-86
2022/08/09 11:59:27;;;;;;;;;;;;;;;33.39;28.40;99532.25;4515708;31;34166;-95
2022/08/09 12:02:00;;;;;;;;;;;;;;;34.17;26.89;99528.06;4509259;31;34411;-94
2022/08/09 12:04:49;;;;;;;;;;;;;;;34.34;27.58;99519.50;4505458;31;34332;-89
2022/08/09 12:07:27;;;;;;;;;;;;;;;34.12;27.41;99525.72;4512805;31;35096;-93
2022/08/09 12:10:09;;;;;;;;;;;;;;;33.12;28.44;99524.44;4513018;31;35028;-90
2022/08/09 12:12:56;;;;;;;;;;;;;;;32.52;28.87;99529.78;4508825;31;34570;-94
2022/08/09 12:15:25;;;;;;;;;;;;;;;32.66;29.41;99529.66;4508334;31;33574;-90
2022/08/09 12:18:16;;;;;;;;;;;;;;;32.98;28.80;99527.31;4506668;31;35101;-88
2022/08/09 12:20:57;;;;;;;;;;;;;;;33.38;28.46;99522.47;4504618;31;34428;-90
2022/08/09 12:23:26;;;;;;;;;;;;;;;32.53;30.30;99529.66;4512606;31;34073;-90
2022/08/09 12:26:13;;;;;;;;;;;;;;;32.73;28.96;99528.22;4515116;31;33938;-91
2022/08/09 12:28:53;;;;;;;;;;;;;;;32.77;29.35;99520.78;4514971;31;34177;-90
2022/08/09 12:31:28;;;;;;;;;;;;;;;33.34;28.48;99522.84;4504561;31;34442;-90
2022/08/09 12:34:16;;;;;;;;;;;;;;;33.09;28.54;99518.44;4515006;31;34245;-89
2022/08/09 12:36:53;;;;;;;;;;;;;;;32.52;28.90;99511.84;4505133;31;33631;-95
2022/08/09 12:39:35;;;;;;;;;;;;;;;33.57;28.32;99513.03;4512971;31;34304;-91
2022/08/09 12:42:07;;;;;;;;;;;;;;;33.61;27.59;99509.12;4513013;31;34013;-87
2022/08/09 12:44:38;;;;;;;;;;;;;;;33.66;27.69;99513.16;4515541;31;33760;-93
2022/08/09 12:47:08;;;;;;;;;;;;;;;33.53;28.04;99516.94;4511942;31;33760;-91
2022/08/09 12:49:38;;;;;;;;;;;;;;;34.20;28.05;99506.28;4503599;31;35227;-95
2022/08/09 12:52:17;;;;;;;;;;;;;;;33.97;29.59;99505.37;4501454;31;34429;-93
2022/08/09 12:54:53;;;;;;;;;;;;;;;33.92;30.92;99509.44;4514404;31;34279;-92
2022/08/09 12:57:42;;;;;;;;;;;;;;;33.91;29.77;99500.50;4514566;31;34249;-91
2022/08/09 13:00:17;;;;;;;;;;;;;;;33.92;27.99;99498.69;4513824;31;33974;-94
2022/08/09 13:02:56;;;;;;;;;;;;;;;34.17;28.31;99497.59;4503608;31;34401;-93
2022/08/09 13:05:24;;;;;;;;;;;;;;;33.46;28.51;99499.53;4509991;31;34059;-91
2022/08/09 13:08:13;;;;;;;;;;;;;;;34.10;29.01;99495.41;4512580;31;33094;-90
2022/08/09 13:10:45;;;;;;;;;;;;;;;34.48;27.69;99494.16;4513357;31;34318;-86
2022/08/09 13:13:29;;;;;;;;;;;;;;;34.46;27.76;99498.81;4509902;31;34456;-91
2022/08/09 13:16:16;;;;;;;;;;;;;;;34.53;27.99;99502.75;4514771;31;34302;-90
2022/08/09 13:18:45;;;;;;;;;;;;;;;34.04;28.56;99492.34;4514809;31;33178;-93
2022/08/09 13:21:24;;;;;;;;;;;;;;;34.25;28.29;99490.66;4514725;31;34267;-95
2022/08/09 13:24:12;;;;;;;;;;;;;;;34.38;27.45;99494.03;4508821;31;33668;-91
2022/08/09 13:26:59;;;;;;;;;;;;;;;34.70;27.58;99487.03;4514616;31;33830;-94
2022/08/09 13:29:33;;;;;;;;;;;;;;;34.76;27.41;99492.78;4514889;31;34425;-96
2022/08/09 13:32:20;;;;;;;;;;;;;;;34.10;27.89;99489.19;4514201;31;34066;-93
2022/08/09 13:34:55;;;;;;;;;;;;;;;33.70;27.43;99491.44;4516894;31;35023;-93
2022/08/09 13:37:22;;;;;;;;;;;;;;;34.75;26.82;99490.22;4513366;31;33766;-96